createdAt,value
2023-11-17T00:00:14.510Z,94074.16
2023-11-17T00:02:43.379Z,94077.53
2023-11-17T00:05:12.089Z,94078.31
2023-11-17T00:07:40.493Z,94076.22
2023-11-17T00:10:09.180Z,94080.41
2023-11-17T00:12:37.184Z,94072.53
2023-11-17T00:15:07.874Z,94136.06
2023-11-17T00:17:37.202Z,94148.91
2023-11-17T00:20:07.109Z,94165.69
2023-11-17T00:22:35.020Z,94155.41
2023-11-17T00:25:03.343Z,94187.69
2023-11-17T00:27:31.323Z,94196.84
2023-11-17T00:29:59.226Z,94174.78
2023-11-17T00:32:27.566Z,94189.19
2023-11-17T00:34:57.072Z,94206.72
2023-11-17T00:37:26.362Z,94205.34
2023-11-17T00:39:54.497Z,94236.56
2023-11-17T00:42:22.636Z,94260.66
2023-11-17T00:44:50.562Z,94259.09
2023-11-17T00:47:19.050Z,94264.78
2023-11-17T00:49:47.051Z,94315.34
2023-11-17T00:52:16.415Z,94325.56
2023-11-17T00:54:45.025Z,94341.97
2023-11-17T00:57:13.477Z,94345.34
2023-11-17T00:59:41.546Z,94358.13
2023-11-17T01:02:09.747Z,94375.63
2023-11-17T01:04:37.765Z,94386.63
2023-11-17T01:07:05.903Z,94398.84
2023-11-17T01:09:35.759Z,94409.28
2023-11-17T01:12:03.681Z,94431.44
2023-11-17T01:14:32.931Z,94428.03
2023-11-17T01:17:01.060Z,94437.97
2023-11-17T01:19:29.102Z,94442.25
2023-11-17T01:21:57.023Z,94454.03
2023-11-17T01:24:25.032Z,94467.03
2023-11-17T01:26:54.326Z,94472.84
2023-11-17T01:29:22.254Z,94474.25
2023-11-17T01:31:50.607Z,94495.03
2023-11-17T01:34:18.749Z,94506.38
2023-11-17T01:36:47.589Z,94512.53
2023-11-17T01:39:15.697Z,94527.38
2023-11-17T01:41:43.918Z,94547.28
2023-11-17T01:44:13.227Z,94559.50
2023-11-17T01:46:41.974Z,94561.81
2023-11-17T01:49:13.747Z,94577.63
2023-11-17T01:51:41.986Z,94599.59
2023-11-17T01:54:13.350Z,94609.81
2023-11-17T01:56:43.757Z,94614.91
2023-11-17T01:59:13.046Z,94629.50
2023-11-17T02:01:41.117Z,94633.56
2023-11-17T02:04:10.222Z,94643.72
2023-11-17T02:06:54.338Z,94659.84
2023-11-17T02:09:36.039Z,94671.56
2023-11-17T02:12:16.028Z,94687.69
2023-11-17T02:14:49.604Z,94686.31
2023-11-17T02:17:26.736Z,94693.38
2023-11-17T02:20:00.668Z,94708.50
2023-11-17T02:22:31.915Z,94712.78
2023-11-17T02:25:14.464Z,94720.16
2023-11-17T02:27:59.228Z,94737.06
2023-11-17T02:30:31.082Z,94738.09
2023-11-17T02:33:01.004Z,94752.41
2023-11-17T02:35:31.610Z,94757.97
2023-11-17T02:38:02.532Z,94779.84
2023-11-17T02:40:33.231Z,94789.19
2023-11-17T02:43:01.401Z,94789.03
2023-11-17T02:45:37.508Z,94802.31
2023-11-17T02:48:15.575Z,94815.59
2023-11-17T02:51:04.975Z,94826.84
2023-11-17T02:53:36.877Z,94836.94
2023-11-17T02:56:05.882Z,94843.81
2023-11-17T02:58:35.780Z,94851.09
2023-11-17T03:01:06.462Z,94859.38
2023-11-17T03:03:37.372Z,94873.47
2023-11-17T03:06:07.097Z,94886.19
2023-11-17T03:08:36.761Z,94894.81
2023-11-17T03:11:05.535Z,94899.88
2023-11-17T03:13:34.126Z,94910.38
2023-11-17T03:16:02.538Z,94918.66
2023-11-17T03:18:39.840Z,94924.53
2023-11-17T03:21:10.950Z,94925.97
2023-11-17T03:23:40.593Z,94927.56
2023-11-17T03:26:08.519Z,94938.59
2023-11-17T03:28:36.988Z,94948.47
2023-11-17T03:31:05.842Z,94955.31
2023-11-17T03:33:35.160Z,94959.00
2023-11-17T03:36:04.121Z,94977.66
2023-11-17T03:38:32.431Z,94984.34
2023-11-17T03:41:01.176Z,94991.78
2023-11-17T03:45:57.423Z,94993.81
2023-11-17T03:48:25.513Z,95015.69
2023-11-17T03:50:55.511Z,95018.09
2023-11-17T03:53:23.599Z,95026.53
2023-11-17T03:55:53.662Z,95019.94
2023-11-17T03:58:22.975Z,95024.38
2023-11-17T04:00:50.989Z,95031.97
2023-11-17T04:03:20.931Z,95046.03
2023-11-17T04:05:50.197Z,95047.03
2023-11-17T04:08:19.444Z,95057.66
2023-11-17T04:10:47.886Z,95059.88
2023-11-17T04:13:16.788Z,95069.31
2023-11-17T04:15:45.443Z,95078.72
2023-11-17T04:18:14.291Z,95088.00
2023-11-17T04:20:42.543Z,95093.59
2023-11-17T04:23:10.495Z,95089.81
2023-11-17T04:25:39.706Z,95112.28
2023-11-17T04:28:07.600Z,95113.09
2023-11-17T04:30:35.640Z,95122.13
2023-11-17T04:33:03.700Z,95124.13
2023-11-17T04:35:31.688Z,95122.53
2023-11-17T04:37:59.598Z,95127.97
2023-11-17T04:40:28.387Z,95126.75
2023-11-17T04:42:57.748Z,95144.00
2023-11-17T04:45:26.613Z,95139.22
2023-11-17T04:47:54.711Z,95149.06
2023-11-17T04:50:22.647Z,95147.06
2023-11-17T04:52:50.627Z,95152.66
2023-11-17T04:55:21.391Z,95163.09
2023-11-17T04:57:49.379Z,95162.72
2023-11-17T05:00:21.423Z,95160.09
2023-11-17T05:02:49.358Z,95177.47
2023-11-17T05:05:17.520Z,95181.84
2023-11-17T05:07:45.654Z,95181.00
2023-11-17T05:10:15.328Z,95180.63
2023-11-17T05:12:43.526Z,95183.47
2023-11-17T05:15:14.494Z,95187.59
2023-11-17T05:17:49.750Z,95189.22
2023-11-17T05:20:19.976Z,95193.66
2023-11-17T05:22:49.905Z,95199.72
2023-11-17T05:25:18.540Z,95195.66
2023-11-17T05:27:48.065Z,95202.72
2023-11-17T05:30:20.038Z,95197.91
2023-11-17T05:32:49.972Z,95208.34
2023-11-17T05:35:18.189Z,95209.94
2023-11-17T05:37:46.127Z,95211.97
2023-11-17T05:40:14.407Z,95217.41
2023-11-17T05:42:43.008Z,95224.63
2023-11-17T05:45:13.558Z,95225.63
2023-11-17T05:47:42.338Z,95236.03
2023-11-17T05:50:12.984Z,95236.41
2023-11-17T05:52:42.616Z,95241.16
2023-11-17T05:55:12.570Z,95244.22
2023-11-17T05:57:43.852Z,95244.06
2023-11-17T06:00:14.922Z,95246.28
2023-11-17T06:02:43.902Z,95255.94
2023-11-17T06:05:14.757Z,95257.38
2023-11-17T06:07:44.148Z,95253.94
2023-11-17T06:10:13.282Z,95257.56
2023-11-17T06:12:43.352Z,95265.19
2023-11-17T06:15:12.570Z,95263.97
2023-11-17T06:17:40.818Z,95267.81
2023-11-17T06:20:10.310Z,95269.00
2023-11-17T06:22:39.589Z,95272.59
2023-11-17T06:25:09.606Z,95279.44
2023-11-17T06:27:38.641Z,95275.63
2023-11-17T06:30:07.910Z,95274.84
2023-11-17T06:32:36.003Z,95279.84
2023-11-17T06:35:07.050Z,95287.47
2023-11-17T06:37:35.208Z,95297.31
2023-11-17T06:40:10.844Z,95293.91
2023-11-17T06:42:42.477Z,95296.72
2023-11-17T06:45:15.302Z,95301.53
2023-11-17T06:47:44.372Z,95299.72
2023-11-17T06:50:13.929Z,95313.34
2023-11-17T06:52:42.923Z,95320.00
2023-11-17T06:55:13.617Z,95317.75
2023-11-17T06:57:44.547Z,95312.34
2023-11-17T07:00:14.466Z,95317.78
2023-11-17T07:02:45.743Z,95322.63
2023-11-17T07:05:18.380Z,95317.97
2023-11-17T07:07:48.297Z,95325.59
2023-11-17T07:10:17.872Z,95330.78
2023-11-17T07:12:46.091Z,95342.81
2023-11-17T07:15:14.746Z,95341.78
2023-11-17T07:17:43.976Z,95344.38
2023-11-17T07:20:13.632Z,95349.81
2023-11-17T07:22:42.315Z,95357.25
2023-11-17T07:25:12.433Z,95354.41
2023-11-17T07:27:42.337Z,95356.41
2023-11-17T07:30:13.718Z,95365.44
2023-11-17T07:32:45.090Z,95368.22
2023-11-17T07:35:13.402Z,95367.81
2023-11-17T07:37:41.441Z,95375.47
2023-11-17T07:40:11.431Z,95370.03
2023-11-17T07:42:40.695Z,95371.41
2023-11-17T07:45:12.624Z,95382.06
2023-11-17T07:47:42.597Z,95385.06
2023-11-17T07:50:15.213Z,95396.13
2023-11-17T07:52:45.347Z,95394.69
2023-11-17T07:55:15.168Z,95393.09
2023-11-17T07:57:43.563Z,95386.84
2023-11-17T08:00:19.474Z,95396.50
2023-11-17T08:02:48.290Z,95407.38
2023-11-17T08:05:16.543Z,95404.31
2023-11-17T08:07:47.203Z,95395.63
2023-11-17T08:10:15.487Z,95400.63
2023-11-17T08:12:47.843Z,95409.09
2023-11-17T08:15:19.073Z,95410.84
2023-11-17T08:17:48.692Z,95408.81
2023-11-17T08:20:19.702Z,95410.44
2023-11-17T08:22:48.442Z,95415.25
2023-11-17T08:25:18.045Z,95416.50
2023-11-17T08:27:46.064Z,95418.28
2023-11-17T08:30:14.746Z,95406.41
2023-11-17T08:32:45.128Z,95416.44
2023-11-17T08:35:17.563Z,95425.69
2023-11-17T08:37:46.528Z,95426.69
2023-11-17T08:40:19.404Z,95427.09
2023-11-17T08:42:50.787Z,95436.69
2023-11-17T08:45:19.801Z,95431.00
2023-11-17T08:47:54.820Z,95431.59
2023-11-17T08:50:23.246Z,95433.63
2023-11-17T08:52:51.185Z,95436.25
2023-11-17T08:55:19.251Z,95436.84
2023-11-17T08:57:47.899Z,95439.66
2023-11-17T09:00:19.873Z,95439.53
2023-11-17T09:02:50.288Z,95440.19
2023-11-17T09:05:21.133Z,95446.88
2023-11-17T09:07:51.225Z,95453.72
2023-11-17T09:10:21.230Z,95451.56
2023-11-17T09:12:50.897Z,95457.63
2023-11-17T09:15:20.434Z,95454.81
2023-11-17T09:17:52.839Z,95460.25
2023-11-17T09:20:25.152Z,95459.84
2023-11-17T09:22:54.301Z,95457.81
2023-11-17T09:25:24.457Z,95456.97
2023-11-17T09:27:55.366Z,95461.59
2023-11-17T09:30:23.741Z,95459.63
2023-11-17T09:32:56.134Z,95461.63
2023-11-17T09:35:28.638Z,95462.25
2023-11-17T09:38:05.431Z,95456.03
2023-11-17T09:40:35.711Z,95460.66
2023-11-17T09:43:16.051Z,95469.53
2023-11-17T09:45:46.515Z,95467.09
2023-11-17T09:48:19.631Z,95470.34
2023-11-17T09:50:52.726Z,95471.16
2023-11-17T09:53:24.670Z,95481.81
2023-11-17T09:55:59.636Z,95482.63
2023-11-17T09:58:30.365Z,95487.84
2023-11-17T10:00:58.892Z,95489.03
2023-11-17T10:03:30.561Z,95494.28
2023-11-17T10:06:05.750Z,95497.09
2023-11-17T10:08:35.384Z,95496.50
2023-11-17T10:11:04.615Z,95498.50
2023-11-17T10:13:35.057Z,95492.47
2023-11-17T10:16:04.498Z,95493.91
2023-11-17T10:18:34.527Z,95491.28
2023-11-17T10:21:05.539Z,95492.88
2023-11-17T10:23:34.409Z,95492.06
2023-11-17T10:26:02.564Z,95484.25
2023-11-17T10:28:30.477Z,95488.69
2023-11-17T10:31:02.709Z,95489.47
2023-11-17T10:33:35.693Z,95490.84
2023-11-17T10:36:11.831Z,95495.47
2023-11-17T10:38:43.087Z,95485.13
2023-11-17T10:41:18.579Z,95484.84
2023-11-17T10:43:51.641Z,95472.28
2023-11-17T10:46:25.543Z,95471.63
2023-11-17T10:48:53.901Z,95477.75
2023-11-17T10:51:23.464Z,95481.31
2023-11-17T10:54:05.573Z,95481.09
2023-11-17T10:56:35.307Z,95483.00
2023-11-17T10:59:04.730Z,95484.66
2023-11-17T11:01:37.030Z,95484.09
2023-11-17T11:04:10.547Z,95489.75
2023-11-17T11:06:42.923Z,95484.56
2023-11-17T11:09:17.666Z,95479.94
2023-11-17T11:11:49.471Z,95484.03
2023-11-17T11:14:18.807Z,95485.84
2023-11-17T11:16:49.613Z,95474.78
2023-11-17T11:19:24.630Z,95492.91
2023-11-17T11:22:02.481Z,95486.69
2023-11-17T11:24:37.742Z,95485.22
2023-11-17T11:27:08.218Z,95485.81
2023-11-17T11:29:40.194Z,95489.06
2023-11-17T11:32:09.810Z,95489.06
2023-11-17T11:34:40.042Z,95495.09
2023-11-17T11:37:11.792Z,95492.47
2023-11-17T11:39:39.976Z,95492.38
2023-11-17T11:42:08.894Z,95493.84
2023-11-17T11:44:37.869Z,95492.53
2023-11-17T11:47:06.524Z,95485.81
2023-11-17T11:49:36.604Z,95485.69
2023-11-17T11:52:15.477Z,95497.03
2023-11-17T11:54:46.567Z,95503.41
2023-11-17T11:57:31.379Z,95503.47
2023-11-17T12:00:07.526Z,95503.34
2023-11-17T12:02:53.760Z,95506.03
2023-11-17T12:05:29.967Z,95498.34
2023-11-17T12:07:59.550Z,95510.50
2023-11-17T12:10:37.204Z,95497.34
2023-11-17T12:13:08.533Z,95504.28
2023-11-17T12:15:36.887Z,95502.09
2023-11-17T12:18:07.700Z,95506.22
2023-11-17T12:20:41.115Z,95513.34
2023-11-17T12:23:12.305Z,95504.91
2023-11-17T12:25:41.413Z,95511.63
2023-11-17T12:28:12.713Z,95507.47
2023-11-17T12:30:41.382Z,95509.69
2023-11-17T12:33:11.236Z,95514.97
2023-11-17T12:35:42.480Z,95521.06
2023-11-17T12:38:17.472Z,95515.53
2023-11-17T12:40:45.567Z,95518.41
2023-11-17T12:43:14.123Z,95521.69
2023-11-17T12:45:43.154Z,95521.13
2023-11-17T12:48:15.542Z,95520.53
2023-11-17T12:50:43.488Z,95516.13
2023-11-17T12:53:11.651Z,95523.13
2023-11-17T12:55:48.132Z,95522.97
2023-11-17T12:58:16.300Z,95525.97
2023-11-17T13:00:47.496Z,95532.69
2023-11-17T13:03:16.943Z,95530.28
2023-11-17T13:05:46.239Z,95527.69
2023-11-17T13:08:14.738Z,95527.53
2023-11-17T13:10:47.276Z,95524.69
2023-11-17T13:13:16.926Z,95529.94
2023-11-17T13:15:44.970Z,95528.31
2023-11-17T13:18:13.436Z,95527.53
2023-11-17T13:20:41.715Z,95533.16
2023-11-17T13:23:10.779Z,95530.72
2023-11-17T13:25:59.859Z,95531.97
2023-11-17T13:28:29.796Z,95532.75
2023-11-17T13:30:57.730Z,95533.56
2023-11-17T13:33:42.637Z,95533.38
2023-11-17T13:36:11.081Z,95537.19
2023-11-17T13:39:17.154Z,95533.56
2023-11-17T13:41:47.161Z,95542.22
2023-11-17T13:44:28.991Z,95543.59
2023-11-17T13:47:02.107Z,95545.03
2023-11-17T13:49:35.774Z,95548.25
2023-11-17T13:52:10.273Z,95549.47
2023-11-17T13:54:38.946Z,95547.84
2023-11-17T13:57:10.148Z,95556.09
2023-11-17T13:59:41.634Z,95551.69
2023-11-17T14:02:11.517Z,95554.09
2023-11-17T14:04:41.852Z,95549.66
2023-11-17T14:07:10.522Z,95551.25
2023-11-17T14:09:40.070Z,95555.06
2023-11-17T14:12:09.495Z,95557.69
2023-11-17T14:14:45.126Z,95563.34
2023-11-17T14:17:13.790Z,95565.34
2023-11-17T14:19:44.013Z,95570.41
2023-11-17T14:22:11.985Z,95574.00
2023-11-17T14:24:41.778Z,95575.03
2023-11-17T14:27:13.233Z,95576.84
2023-11-17T14:29:44.202Z,95581.47
2023-11-17T14:32:16.308Z,95586.13
2023-11-17T14:34:47.575Z,95573.63
2023-11-17T14:37:16.118Z,95583.50
2023-11-17T14:39:44.136Z,95590.34
2023-11-17T14:42:12.332Z,95588.75
2023-11-17T14:44:40.351Z,95590.16
2023-11-17T14:47:10.172Z,95592.75
2023-11-17T14:49:39.405Z,95593.56
2023-11-17T14:52:08.956Z,95595.59
2023-11-17T14:54:37.921Z,95591.38
2023-11-17T14:57:07.376Z,95592.78
2023-11-17T14:59:36.061Z,95595.19
2023-11-17T15:02:04.502Z,95600.19
2023-11-17T15:04:35.761Z,95596.41
2023-11-17T15:07:05.706Z,95600.81
2023-11-17T15:09:35.069Z,95606.66
2023-11-17T15:12:05.319Z,95608.81
2023-11-17T15:14:33.384Z,95610.00
2023-11-17T15:17:01.473Z,95614.44
2023-11-17T15:19:29.961Z,95609.22
2023-11-17T15:21:59.449Z,95617.31
2023-11-17T15:24:28.591Z,95612.28
2023-11-17T15:26:56.920Z,95619.72
2023-11-17T15:29:28.969Z,95626.56
2023-11-17T15:31:59.334Z,95624.56
2023-11-17T15:34:29.783Z,95628.38
2023-11-17T15:36:59.913Z,95632.00
2023-11-17T15:39:31.818Z,95625.97
2023-11-17T15:42:00.175Z,95634.63
2023-11-17T15:44:29.522Z,95637.03
2023-11-17T15:47:00.561Z,95629.19
2023-11-17T15:49:30.073Z,95640.06
2023-11-17T15:51:59.676Z,95639.63
2023-11-17T15:54:27.621Z,95647.31
2023-11-17T15:56:56.905Z,95651.31
2023-11-17T15:59:25.040Z,95656.56
2023-11-17T16:01:55.928Z,95655.53
2023-11-17T16:04:25.302Z,95657.34
2023-11-17T16:06:57.059Z,95667.81
2023-11-17T16:09:29.722Z,95667.59
2023-11-17T16:11:57.982Z,95667.41
2023-11-17T16:14:25.900Z,95664.59
2023-11-17T16:16:54.170Z,95671.66
2023-11-17T16:19:22.414Z,95677.06
2023-11-17T16:21:50.467Z,95673.84
2023-11-17T16:24:18.428Z,95682.09
2023-11-17T16:26:47.718Z,95680.88
2023-11-17T16:29:15.772Z,95686.91
2023-11-17T16:31:43.855Z,95689.72
2023-11-17T16:34:12.411Z,95690.75
2023-11-17T16:36:46.716Z,95690.75
2023-11-17T16:39:19.896Z,95692.72
2023-11-17T16:41:50.759Z,95691.94
2023-11-17T16:44:18.882Z,95689.53
2023-11-17T16:46:50.868Z,95697.97
2023-11-17T16:49:20.855Z,95705.00
2023-11-17T16:51:49.395Z,95695.56
2023-11-17T16:54:18.516Z,95699.38
2023-11-17T16:56:46.788Z,95707.22
2023-11-17T16:59:17.011Z,95703.38
2023-11-17T17:01:45.559Z,95711.63
2023-11-17T17:04:13.781Z,95701.56
2023-11-17T17:06:43.382Z,95711.81
2023-11-17T17:09:15.110Z,95715.41
2023-11-17T17:11:46.342Z,95726.50
2023-11-17T17:14:20.715Z,95724.91
2023-11-17T17:16:52.704Z,95727.31
2023-11-17T17:19:23.171Z,95734.34
2023-11-17T17:21:52.384Z,95734.75
2023-11-17T17:24:20.694Z,95737.97
2023-11-17T17:26:49.420Z,95738.63
2023-11-17T17:29:18.772Z,95742.41
2023-11-17T17:31:46.930Z,95741.00
2023-11-17T17:34:17.063Z,95746.00
2023-11-17T17:36:45.214Z,95746.44
2023-11-17T17:39:17.661Z,95747.03
2023-11-17T17:41:47.742Z,95755.66
2023-11-17T17:44:20.709Z,95759.28
2023-11-17T17:46:51.592Z,95759.88
2023-11-17T17:49:19.770Z,95764.50
2023-11-17T17:51:47.687Z,95767.91
2023-11-17T17:54:15.775Z,95772.53
2023-11-17T17:56:44.453Z,95780.16
2023-11-17T17:59:14.264Z,95777.75
2023-11-17T18:01:45.284Z,95780.56
2023-11-17T18:04:14.598Z,95780.13
2023-11-17T18:06:43.550Z,95779.13
2023-11-17T18:09:13.611Z,95776.53
2023-11-17T18:11:41.779Z,95793.19
2023-11-17T18:14:11.239Z,95792.41
2023-11-17T18:16:39.288Z,95792.41
2023-11-17T18:19:08.626Z,95787.78
2023-11-17T18:21:36.577Z,95798.44
2023-11-17T18:24:06.411Z,95798.22
2023-11-17T18:26:42.147Z,95787.59
2023-11-17T18:29:18.121Z,95794.59
2023-11-17T18:31:47.128Z,95796.25
2023-11-17T18:34:17.185Z,95796.25
2023-11-17T18:36:45.583Z,95806.06
2023-11-17T18:39:13.792Z,95799.84
2023-11-17T18:41:42.096Z,95800.66
2023-11-17T18:44:10.155Z,95798.06
2023-11-17T18:46:40.733Z,95793.44
2023-11-17T18:49:10.863Z,95797.44
2023-11-17T18:51:40.646Z,95797.44
2023-11-17T18:54:10.934Z,95812.31
2023-11-17T18:56:38.936Z,95806.69
2023-11-17T18:59:07.352Z,95800.66
2023-11-17T19:01:35.507Z,95800.47
2023-11-17T19:04:04.268Z,95805.06
2023-11-17T19:06:32.491Z,95803.44
2023-11-17T19:09:04.836Z,95804.91
2023-11-17T19:11:32.934Z,95804.91
2023-11-17T19:14:01.026Z,95803.69
2023-11-17T19:16:31.480Z,95806.72
2023-11-17T19:18:59.507Z,95804.72
2023-11-17T19:21:28.011Z,95803.50
2023-11-17T19:23:56.327Z,95804.31
2023-11-17T19:26:25.545Z,95806.75
2023-11-17T19:28:53.477Z,95796.28
2023-11-17T19:31:22.575Z,95804.31
2023-11-17T19:33:50.532Z,95806.94
2023-11-17T19:36:18.625Z,95804.50
2023-11-17T19:38:47.726Z,95806.94
2023-11-17T19:41:19.780Z,95810.34
2023-11-17T19:43:50.404Z,95817.59
2023-11-17T19:46:18.572Z,95810.75
2023-11-17T19:48:47.566Z,95821.78
2023-11-17T19:51:16.826Z,95834.03
2023-11-17T19:53:46.182Z,95836.66
2023-11-17T19:56:17.248Z,95834.03
2023-11-17T19:58:45.537Z,95830.41
2023-11-17T20:01:17.396Z,95826.19
2023-11-17T20:03:45.455Z,95831.44
2023-11-17T20:06:17.938Z,95841.88
2023-11-17T20:08:46.279Z,95854.94
2023-11-17T20:11:16.310Z,95855.59
2023-11-17T20:13:44.285Z,95850.53
2023-11-17T20:16:14.058Z,95855.59
2023-11-17T20:18:42.188Z,95858.19
2023-11-17T20:21:10.840Z,95850.34
2023-11-17T20:23:38.756Z,95865.03
2023-11-17T20:26:08.237Z,95866.84
2023-11-17T20:28:37.031Z,95872.44
2023-11-17T20:31:07.191Z,95866.59
2023-11-17T20:33:36.689Z,95867.78
2023-11-17T20:36:06.409Z,95866.97
2023-11-17T20:38:38.004Z,95866.81
2023-11-17T20:41:10.632Z,95874.00
2023-11-17T20:43:38.732Z,95876.84
2023-11-17T20:46:07.070Z,95874.00
2023-11-17T20:48:36.349Z,95881.25
2023-11-17T20:51:05.544Z,95880.66
2023-11-17T20:53:34.581Z,95885.25
2023-11-17T20:56:03.845Z,95887.03
2023-11-17T20:58:31.829Z,95896.69
2023-11-17T21:01:00.398Z,95903.72
2023-11-17T21:03:28.556Z,95903.31
2023-11-17T21:05:58.066Z,95907.91
2023-11-17T21:08:25.970Z,95913.56
2023-11-17T21:10:53.897Z,95910.59
2023-11-17T21:13:21.920Z,95909.59
2023-11-17T21:15:49.865Z,95920.94
2023-11-17T21:18:17.804Z,95919.72
2023-11-17T21:20:46.008Z,95924.50
2023-11-17T21:23:16.873Z,95914.47
2023-11-17T21:25:45.095Z,95923.50
2023-11-17T21:28:13.950Z,95925.69
2023-11-17T21:30:43.787Z,95927.09
2023-11-17T21:33:12.138Z,95933.97
2023-11-17T21:35:40.333Z,95934.56
2023-11-17T21:38:08.902Z,95934.38
2023-11-17T21:40:38.262Z,95939.00
2023-11-17T21:43:06.220Z,95939.56
2023-11-17T21:45:36.517Z,95941.34
2023-11-17T21:48:05.437Z,95940.75
2023-11-17T21:50:35.089Z,95932.50
2023-11-17T21:53:03.240Z,95941.97
2023-11-17T21:55:31.223Z,95940.16
2023-11-17T21:58:00.637Z,95939.19
2023-11-17T22:00:29.279Z,95945.78
2023-11-17T22:02:57.403Z,95941.16
2023-11-17T22:05:29.095Z,95951.41
2023-11-17T22:07:57.304Z,95951.81
2023-11-17T22:10:27.557Z,95948.00
2023-11-17T22:12:59.666Z,95943.41
2023-11-17T22:15:29.006Z,95947.63
2023-11-17T22:17:56.966Z,95952.06
2023-11-17T22:20:28.714Z,95946.81
2023-11-17T22:22:56.729Z,95958.50
2023-11-17T22:25:24.787Z,95959.50
2023-11-17T22:27:56.733Z,95957.28
2023-11-17T22:30:26.868Z,95958.09
2023-11-17T22:32:59.806Z,95950.84
2023-11-17T22:35:28.857Z,95951.66
2023-11-17T22:37:57.031Z,95950.91
2023-11-17T22:40:25.482Z,95957.56
2023-11-17T22:42:54.390Z,95954.75
2023-11-17T22:45:23.193Z,95970.44
2023-11-17T22:47:52.830Z,95961.78
2023-11-17T22:50:23.823Z,95961.53
2023-11-17T22:52:53.671Z,95973.25
2023-11-17T22:55:22.886Z,95964.41
2023-11-17T22:57:51.428Z,95967.00
2023-11-17T23:03:15.392Z,95967.38
2023-11-17T23:05:44.386Z,95966.38
2023-11-17T23:08:14.260Z,95977.03
2023-11-17T23:10:43.063Z,95980.03
2023-11-17T23:13:12.594Z,95978.78
2023-11-17T23:15:40.746Z,95975.78
2023-11-17T23:18:10.775Z,95968.09
2023-11-17T23:20:40.234Z,95979.94
2023-11-17T23:23:08.208Z,95978.34
2023-11-17T23:25:38.119Z,95984.72
2023-11-17T23:28:07.202Z,95992.78
2023-11-17T23:30:36.077Z,95992.78
2023-11-17T23:33:08.552Z,95992.16
2023-11-17T23:35:37.270Z,95993.78
2023-11-17T23:38:09.039Z,96000.63
2023-11-17T23:40:37.165Z,95996.38
2023-11-17T23:43:05.486Z,95998.81
2023-11-17T23:45:33.457Z,96000.06
2023-11-17T23:48:01.535Z,95997.44
2023-11-17T23:50:30.172Z,95999.41
2023-11-17T23:52:58.275Z,95997.59
2023-11-17T23:55:27.779Z,96001.22
2023-11-17T23:57:56.093Z,96015.09
